Terminal Aerodrome Forecast
Issued by NWS Milwaukee/Sullivan, WI

Home | Current Version | Previous Version | Text Only | Print | Product List | Glossary On
Versions: 1 2 3 4 5 6 7 8 9 10 11 12 13 14 15 16 17 18 19 20 21 22 23 24 25 26 27 28
000
FTUS43 KMKX 240220 AAA
TAFMKE
TAF AMD
KMKE 240220Z 2402/2506 00000KT P6SM OVC100
     FM240400 30007KT 6SM -RA OVC060
     FM240600 29010KT 6SM RA OVC025
     FM240800 29009KT 4SM RA BR OVC015
     FM241500 30015G27KT 2SM RA BR OVC010
     FM241800 31018G35KT 3SM -RA OVC020
     FM250000 30014G27KT P6SM OVC040 WS010/30030KT=

USA.gov is the U.S. government's official web portal to all federal, state and local government web resources and services.